Time;durP1;ratioP1;P1;durP2;ratioP2;P2;SDS_P1;SDS_P2;PMS_P1;PMS_P2;Temp;Humidity;BMP_temperature;BMP_pressure;BME280_temperature;BME280_humidity;BME280_pressure;Samples;Min_cycle;Max_cycle;Signal;HPM_P1;HPM_P2
2022/06/01 00:01:16;;;;;;;1.15;0.88;;;23.10;38.80;;;;;;5101272;28;20069;-38
2022/06/01 00:03:42;;;;;;;1.83;0.95;;;23.10;38.80;;;;;;5100610;28;20028;-37
2022/06/01 00:06:08;;;;;;;1.15;0.93;;;23.10;38.80;;;;;;5100263;28;20019;-37
2022/06/01 00:08:34;;;;;;;2.33;1.00;;;23.20;38.90;;;;;;5098625;28;20072;-39
2022/06/01 00:11:00;;;;;;;2.05;1.10;;;23.10;38.80;;;;;;5098780;28;20539;-37
2022/06/01 00:13:27;;;;;;;1.77;1.00;;;23.10;38.70;;;;;;5100307;28;20013;-37
2022/06/01 00:15:54;;;;;;;1.73;0.77;;;23.10;38.80;;;;;;5100404;28;20012;-37
2022/06/01 00:18:19;;;;;;;2.65;1.05;;;23.10;38.70;;;;;;5098473;28;20099;-38
2022/06/01 00:20:46;;;;;;;3.10;0.95;;;23.20;38.60;;;;;;5099614;28;20061;-39
2022/06/01 00:23:12;;;;;;;1.85;0.90;;;23.10;38.50;;;;;;5099547;28;20040;-38
2022/06/01 00:25:37;;;;;;;2.00;0.95;;;23.10;38.50;;;;;;5099872;28;20082;-40
2022/06/01 00:28:03;;;;;;;1.30;0.85;;;23.10;38.50;;;;;;5097784;28;20510;-39
2022/06/01 00:30:29;;;;;;;1.40;0.80;;;23.10;38.40;;;;;;5099523;28;20008;-37
2022/06/01 00:32:55;;;;;;;1.20;0.70;;;23.10;38.40;;;;;;5098063;28;20491;-40
2022/06/01 00:35:21;;;;;;;1.77;0.85;;;23.10;38.40;;;;;;5099510;28;20065;-38
2022/06/01 00:37:47;;;;;;;1.70;0.90;;;23.10;38.30;;;;;;5099874;28;20016;-40
2022/06/01 00:40:14;;;;;;;1.55;0.70;;;23.10;38.30;;;;;;5099218;28;20019;-40
2022/06/01 00:42:41;;;;;;;1.70;0.85;;;23.10;38.20;;;;;;5098435;28;20008;-37
2022/06/01 00:45:08;;;;;;;1.40;0.75;;;23.10;38.20;;;;;;5099252;28;20044;-38
2022/06/01 00:47:34;;;;;;;2.83;0.95;;;23.00;38.20;;;;;;5098243;28;20012;-37
2022/06/01 00:50:15;;;;;;;1.42;0.70;;;23.10;38.30;;;;;;5097538;28;20087;-41
2022/06/01 00:52:45;;;;;;;2.00;0.88;;;23.00;38.20;;;;;;5097662;28;20016;-37
2022/06/01 00:55:22;;;;;;;1.15;0.75;;;23.00;38.20;;;;;;5097363;28;20013;-38
2022/06/01 00:57:50;;;;;;;1.00;0.80;;;23.00;38.70;;;;;;5098751;28;20161;-37
2022/06/01 01:00:22;;;;;;;1.98;0.93;;;23.00;38.20;;;;;;5098748;28;20008;-39
2022/06/01 01:02:48;;;;;;;1.15;0.50;;;23.00;38.10;;;;;;5097391;28;20030;-40
2022/06/01 01:05:15;;;;;;;1.10;0.70;;;23.00;38.10;;;;;;5081557;28;20024;-40
2022/06/01 01:07:40;;;;;;;1.83;0.90;;;23.00;38.10;;;;;;5099603;28;20004;-39
2022/06/01 01:10:07;;;;;;;1.52;0.65;;;23.00;38.10;;;;;;5099566;28;20494;-38
2022/06/01 01:12:56;;;;;;;1.73;0.90;;;23.00;38.00;;;;;;5102013;28;20020;-39
2022/06/01 01:15:19;;;;;;;2.25;0.98;;;23.00;38.00;;;;;;5099822;28;20020;-39
2022/06/01 01:17:44;;;;;;;1.35;0.90;;;23.00;37.90;;;;;;5099887;28;20099;-39
2022/06/01 01:20:11;;;;;;;0.70;0.63;;;23.00;37.90;;;;;;5100554;28;20057;-38
2022/06/01 01:23:05;;;;;;;1.30;0.70;;;23.00;37.80;;;;;;5100757;28;20032;-39
2022/06/01 01:25:40;;;;;;;2.05;0.85;;;23.00;37.90;;;;;;5101560;28;20020;-39
2022/06/01 01:28:07;;;;;;;0.95;0.65;;;23.00;37.80;;;;;;5103424;28;20023;-38
2022/06/01 01:30:42;;;;;;;1.27;0.75;;;23.00;38.40;;;;;;5100569;28;20012;-38
2022/06/01 01:33:13;;;;;;;1.40;0.80;;;22.90;37.80;;;;;;5101048;28;20020;-38
2022/06/01 01:35:45;;;;;;;1.65;0.90;;;22.90;37.80;;;;;;5102255;28;20087;-37
2022/06/01 01:38:18;;;;;;;1.45;0.75;;;22.90;37.80;;;;;;5101501;28;20012;-38
2022/06/01 01:40:44;;;;;;;1.42;0.90;;;22.90;37.80;;;;;;5099856;28;20008;-42
2022/06/01 01:43:10;;;;;;;1.90;0.60;;;23.00;37.90;;;;;;5082629;28;20019;-37
2022/06/01 01:45:36;;;;;;;1.80;0.80;;;22.90;37.80;;;;;;5098706;28;20000;-39
2022/06/01 01:48:02;;;;;;;1.85;0.80;;;22.90;37.70;;;;;;5098574;28;20112;-37
2022/06/01 01:50:28;;;;;;;1.77;1.20;;;22.90;37.70;;;;;;5100530;28;20020;-39
2022/06/01 01:52:53;;;;;;;1.65;0.70;;;22.90;37.60;;;;;;5100379;28;20036;-37
2022/06/01 01:55:31;;;;;;;1.15;0.70;;;22.90;37.60;;;;;;5099527;28;20020;-38
2022/06/01 01:58:02;;;;;;;1.77;0.70;;;22.90;37.60;;;;;;5083121;28;20019;-40
2022/06/01 02:00:34;;;;;;;2.30;0.93;;;22.90;37.60;;;;;;5081720;28;20027;-38
2022/06/01 02:03:08;;;;;;;2.90;0.90;;;22.90;37.60;;;;;;5099773;28;20027;-37
2022/06/01 02:06:04;;;;;;;2.00;0.70;;;22.90;37.70;;;;;;5099715;28;20016;-37
2022/06/01 02:08:41;;;;;;;1.88;0.80;;;22.90;37.70;;;;;;5099580;28;20065;-39
2022/06/01 02:14:09;;;;;;;2.47;0.80;;;22.80;37.70;;;;;;5099135;28;20031;-39
2022/06/01 02:16:38;;;;;;;1.50;0.80;;;22.80;37.70;;;;;;5098281;28;20012;-40
2022/06/01 02:19:06;;;;;;;2.88;0.95;;;22.80;37.60;;;;;;5100163;28;20020;-40
2022/06/01 02:21:32;;;;;;;1.52;0.75;;;22.80;37.60;;;;;;5099232;28;20012;-41
2022/06/01 02:23:59;;;;;;;2.05;0.82;;;22.80;37.60;;;;;;5097804;28;20051;-39
2022/06/01 02:26:25;;;;;;;3.17;0.90;;;22.80;37.50;;;;;;5097649;28;20023;-45
2022/06/01 02:28:54;;;;;;;2.13;0.80;;;22.80;37.50;;;;;;5097693;28;20022;-41
2022/06/01 02:31:19;;;;;;;1.63;0.70;;;22.80;37.50;;;;;;5097147;28;20016;-41
2022/06/01 02:33:46;;;;;;;3.40;0.90;;;22.80;37.60;;;;;;5098222;28;20076;-40
2022/06/01 02:36:14;;;;;;;1.55;0.77;;;22.80;37.60;;;;;;5080795;28;20008;-40
2022/06/01 02:38:44;;;;;;;2.75;0.80;;;22.80;37.60;;;;;;5097169;28;20153;-40
2022/06/01 02:42:25;;;;;;;;;;;22.80;37.60;;;;;;5081885;28;20016;-40
2022/06/01 02:43:55;;;;;;;1.15;0.60;;;22.80;37.60;;;;;;5097464;28;19977;-39
2022/06/01 02:46:21;;;;;;;2.63;0.80;;;22.80;37.70;;;;;;5098055;28;20134;-39
2022/06/01 02:48:47;;;;;;;1.52;0.80;;;22.80;37.60;;;;;;5099128;28;20008;-45
2022/06/01 02:51:15;;;;;;;2.03;0.98;;;22.80;37.50;;;;;;5097693;28;20020;-40
2022/06/01 02:53:41;;;;;;;1.75;1.00;;;22.80;37.50;;;;;;5098168;28;20058;-40
2022/06/01 02:56:07;;;;;;;3.47;0.80;;;22.80;37.50;;;;;;5098502;28;20008;-42
2022/06/01 02:58:34;;;;;;;2.33;0.75;;;22.80;37.50;;;;;;5100018;28;20419;-44
2022/06/01 03:01:01;;;;;;;1.88;0.68;;;22.80;37.60;;;;;;5082248;28;20089;-43
2022/06/01 03:03:26;;;;;;;2.58;0.80;;;22.80;37.60;;;;;;5097475;28;20028;-45
2022/06/01 03:05:52;;;;;;;2.85;0.80;;;22.70;37.60;;;;;;5097826;28;20383;-39
2022/06/01 03:08:18;;;;;;;1.30;0.85;;;22.70;37.60;;;;;;5098317;28;20074;-43
2022/06/01 03:10:44;;;;;;;1.83;0.77;;;22.70;37.60;;;;;;5099604;28;20008;-38
2022/06/01 03:13:10;;;;;;;2.28;0.80;;;22.70;37.60;;;;;;5099661;28;20019;-45
2022/06/01 03:15:36;;;;;;;1.55;0.65;;;22.70;37.70;;;;;;5100167;28;20015;-39
2022/06/01 03:18:02;;;;;;;1.85;0.95;;;22.70;37.80;;;;;;5100292;28;20142;-45
2022/06/01 03:20:29;;;;;;;2.70;0.98;;;22.70;37.70;;;;;;5099785;28;20020;-42
2022/06/01 03:22:55;;;;;;;1.88;0.88;;;22.70;37.70;;;;;;5099342;28;20570;-39
2022/06/01 03:25:24;;;;;;;1.60;0.80;;;22.70;37.70;;;;;;5099073;28;20055;-45
2022/06/01 03:27:51;;;;;;;2.28;0.80;;;22.70;37.70;;;;;;5097250;28;20030;-40
2022/06/01 03:30:17;;;;;;;2.75;0.90;;;22.70;37.60;;;;;;5097221;28;20080;-40
2022/06/01 03:32:44;;;;;;;2.10;0.90;;;22.70;37.60;;;;;;5097585;28;20012;-38
2022/06/01 03:35:10;;;;;;;1.08;0.70;;;22.70;37.60;;;;;;5096029;28;20062;-39
2022/06/01 03:37:36;;;;;;;2.00;0.80;;;22.70;37.60;;;;;;5095490;28;20016;-41
2022/06/01 03:40:02;;;;;;;1.83;0.65;;;22.70;37.60;;;;;;5094435;28;20027;-44
2022/06/01 03:42:30;;;;;;;1.73;0.80;;;22.70;37.70;;;;;;5094515;28;20073;-38
2022/06/01 03:47:41;;;;;;;1.25;0.77;;;22.60;37.60;;;;;;5095389;28;20081;-42
2022/06/01 03:50:08;;;;;;;1.58;0.80;;;22.70;37.70;;;;;;5097049;28;20103;-38
2022/06/01 03:52:34;;;;;;;2.85;0.90;;;22.70;37.70;;;;;;5098256;28;20015;-42
2022/06/01 03:55:00;;;;;;;1.65;0.70;;;22.70;37.60;;;;;;5097633;28;20012;-39
2022/06/01 03:57:26;;;;;;;1.20;0.70;;;22.70;37.60;;;;;;5097926;28;20016;-41
2022/06/01 03:59:51;;;;;;;3.17;1.10;;;22.70;37.60;;;;;;5096235;28;20016;-39
2022/06/01 04:02:17;;;;;;;1.25;0.63;;;22.70;37.60;;;;;;5097422;28;20024;-43
2022/06/01 04:04:43;;;;;;;2.83;0.98;;;22.70;37.70;;;;;;5079367;28;20035;-42
2022/06/01 04:07:09;;;;;;;2.03;0.80;;;22.70;37.50;;;;;;5096356;28;20016;-39
2022/06/01 04:09:35;;;;;;;1.23;0.70;;;22.80;37.50;;;;;;5096259;28;20530;-40
2022/06/01 04:12:01;;;;;;;1.65;0.88;;;22.80;37.40;;;;;;5097848;28;20043;-39
2022/06/01 04:14:26;;;;;;;2.30;1.00;;;22.80;37.30;;;;;;5097311;28;20053;-40
2022/06/01 04:16:52;;;;;;;1.95;0.80;;;22.80;37.20;;;;;;5096836;28;20087;-39
2022/06/01 04:19:18;;;;;;;2.38;0.63;;;22.90;37.10;;;;;;5097584;28;20016;-40
2022/06/01 04:21:46;;;;;;;1.95;0.90;;;22.90;37.10;;;;;;5097224;28;20020;-39
2022/06/01 04:24:14;;;;;;;1.52;0.70;;;23.00;37.00;;;;;;5097268;28;20040;-38
2022/06/01 04:26:42;;;;;;;2.13;0.80;;;23.00;36.90;;;;;;5098391;28;20463;-40
2022/06/01 04:29:08;;;;;;;2.70;0.90;;;23.10;36.90;;;;;;5099377;28;20023;-39
2022/06/01 04:31:34;;;;;;;1.45;0.63;;;23.10;36.80;;;;;;5099458;28;20004;-41
2022/06/01 04:34:00;;;;;;;1.65;0.70;;;23.10;36.60;;;;;;5098688;28;20020;-39
2022/06/01 04:36:26;;;;;;;1.73;0.80;;;23.20;36.60;;;;;;5081803;28;20112;-38
2022/06/01 04:38:51;;;;;;;0.70;0.60;;;23.30;36.50;;;;;;5098577;28;20023;-40
2022/06/01 04:41:18;;;;;;;1.73;0.90;;;23.30;36.40;;;;;;5098699;28;20022;-39
2022/06/01 04:43:44;;;;;;;1.88;0.63;;;23.40;36.30;;;;;;5098918;28;20020;-42
2022/06/01 04:46:10;;;;;;;1.65;0.80;;;23.50;36.10;;;;;;5098279;28;20024;-40
2022/06/01 04:48:35;;;;;;;1.63;0.80;;;23.60;36.00;;;;;;5100485;28;20391;-41
2022/06/01 04:51:02;;;;;;;1.17;0.52;;;23.60;35.70;;;;;;5099131;28;20013;-42
2022/06/01 04:53:27;;;;;;;1.52;0.80;;;23.80;35.60;;;;;;5099669;28;20051;-42
2022/06/01 04:55:53;;;;;;;1.23;0.80;;;23.80;35.40;;;;;;5082740;28;20490;-40
2022/06/01 04:58:19;;;;;;;1.85;0.80;;;23.90;35.40;;;;;;5100697;28;20024;-42
2022/06/01 05:00:45;;;;;;;2.22;0.95;;;23.80;35.30;;;;;;5097758;28;20047;-39
2022/06/01 05:03:11;;;;;;;2.47;0.98;;;23.80;35.30;;;;;;5098595;28;20070;-44
2022/06/01 05:05:39;;;;;;;1.50;0.80;;;23.70;35.40;;;;;;5099673;28;20008;-42
2022/06/01 05:08:08;;;;;;;2.10;0.93;;;23.60;35.50;;;;;;5099725;28;20012;-40
2022/06/01 05:10:34;;;;;;;1.50;0.60;;;23.60;35.60;;;;;;5101716;28;20091;-42
2022/06/01 05:13:00;;;;;;;2.17;0.70;;;23.60;35.70;;;;;;5100077;28;20027;-40
2022/06/01 05:15:26;;;;;;;2.13;0.80;;;23.50;35.80;;;;;;5099315;28;20016;-39
2022/06/01 05:17:52;;;;;;;1.45;0.65;;;23.50;35.90;;;;;;5098412;28;20425;-43
2022/06/01 05:20:17;;;;;;;2.15;0.85;;;23.50;36.00;;;;;;5099224;28;20032;-39
2022/06/01 05:22:43;;;;;;;1.42;0.75;;;23.40;36.30;;;;;;5081173;28;20143;-39
2022/06/01 05:25:09;;;;;;;2.35;0.90;;;23.40;36.30;;;;;;5080584;28;20024;-41
2022/06/01 05:27:35;;;;;;;3.53;0.80;;;23.30;36.30;;;;;;5099269;28;20087;-39
2022/06/01 05:30:01;;;;;;;1.70;0.70;;;23.30;36.40;;;;;;5097947;28;20074;-40
2022/06/01 05:32:27;;;;;;;2.75;1.08;;;23.30;36.50;;;;;;5095853;28;20031;-38
2022/06/01 05:34:54;;;;;;;1.70;0.90;;;23.30;36.50;;;;;;5097082;28;20024;-40
2022/06/01 05:37:19;;;;;;;2.30;1.10;;;23.20;36.50;;;;;;5079375;28;20508;-39
2022/06/01 05:39:45;;;;;;;2.70;1.05;;;23.30;36.60;;;;;;5096033;28;20020;-40
2022/06/01 05:42:11;;;;;;;2.97;1.30;;;23.30;36.70;;;;;;5097767;28;20669;-41
2022/06/01 05:44:38;;;;;;;3.65;1.05;;;23.20;36.70;;;;;;5096332;28;20071;-42
2022/06/01 05:47:04;;;;;;;2.75;0.90;;;23.20;36.60;;;;;;5097355;28;20095;-39
2022/06/01 05:49:30;;;;;;;2.72;0.93;;;23.30;36.60;;;;;;5096952;28;20047;-41
2022/06/01 05:51:57;;;;;;;1.38;0.80;;;23.40;36.50;;;;;;5097966;28;20025;-39
2022/06/01 05:54:23;;;;;;;1.65;0.80;;;23.60;36.20;;;;;;5095877;28;20020;-38
2022/06/01 05:56:49;;;;;;;3.10;1.00;;;23.60;35.80;;;;;;5077935;28;20420;-38
2022/06/01 05:59:15;;;;;;;3.35;1.00;;;23.80;35.70;;;;;;5094614;28;20035;-38
2022/06/01 06:01:41;;;;;;;3.00;1.00;;;23.80;35.70;;;;;;5096065;28;20483;-40
2022/06/01 06:04:07;;;;;;;2.35;1.10;;;23.80;35.70;;;;;;5096740;28;20046;-39
2022/06/01 06:06:33;;;;;;;3.28;0.90;;;23.90;35.70;;;;;;5094747;28;20530;-39
2022/06/01 06:09:02;;;;;;;2.35;0.90;;;24.10;35.90;;;;;;5093536;28;20485;-38
2022/06/01 06:11:29;;;;;;;2.10;0.90;;;24.30;35.30;;;;;;5076961;28;20012;-38
2022/06/01 06:13:55;;;;;;;2.00;1.00;;;24.40;34.90;;;;;;5092723;28;20081;-39
2022/06/01 06:16:21;;;;;;;3.92;1.13;;;24.70;34.70;;;;;;5093098;28;20063;-41
2022/06/01 06:18:47;;;;;;;2.15;0.88;;;24.80;34.50;;;;;;5092763;28;20072;-39
2022/06/01 06:21:14;;;;;;;6.70;1.30;;;24.80;34.50;;;;;;5091815;28;20118;-38
2022/06/01 06:23:39;;;;;;;2.65;0.82;;;24.80;34.70;;;;;;5088056;28;20044;-37
2022/06/01 06:26:05;;;;;;;12.77;1.90;;;24.80;35.00;;;;;;5111897;28;20099;-38
2022/06/01 06:28:33;;;;;;;20.17;2.30;;;24.70;36.10;;;;;;5112609;28;20034;-37
2022/06/01 06:30:59;;;;;;;15.90;2.47;;;24.70;37.50;;;;;;5113972;28;20023;-37
2022/06/01 06:33:24;;;;;;;21.00;2.45;;;24.70;38.50;;;;;;5114146;28;20016;-37
2022/06/01 06:36:04;;;;;;;22.90;2.20;;;24.80;39.00;;;;;;5112622;28;20016;-36
2022/06/01 06:38:30;;;;;;;22.80;2.60;;;24.90;38.90;;;;;;5113759;28;20018;-36
2022/06/01 06:40:57;;;;;;;21.92;2.53;;;25.00;38.70;;;;;;5113747;28;20027;-36
2022/06/01 06:43:24;;;;;;;14.27;2.63;;;25.20;38.60;;;;;;5112156;28;20061;-37
2022/06/01 06:46:03;;;;;;;12.05;1.73;;;25.30;38.20;;;;;;5114027;28;20036;-37
2022/06/01 06:48:29;;;;;;;11.52;1.95;;;25.40;38.10;;;;;;5113512;28;20008;-37
2022/06/01 06:50:55;;;;;;;7.78;1.63;;;25.50;37.60;;;;;;5112018;28;20095;-38
2022/06/01 06:53:21;;;;;;;10.30;1.80;;;25.60;37.40;;;;;;5111684;28;20008;-37
2022/06/01 06:55:47;;;;;;;8.85;1.42;;;25.70;37.40;;;;;;5112899;28;20462;-37
2022/06/01 06:58:13;;;;;;;10.45;1.50;;;25.70;37.40;;;;;;5113090;28;20059;-38
2022/06/01 07:00:39;;;;;;;8.68;1.42;;;25.70;37.40;;;;;;5113077;28;20036;-37
2022/06/01 07:03:05;;;;;;;9.15;1.48;;;25.60;37.60;;;;;;5112763;28;20019;-38
2022/06/01 07:08:15;;;;;;;5.53;1.27;;;25.70;37.80;;;;;;5112981;28;20026;-37
2022/06/01 07:10:41;;;;;;;7.93;1.33;;;25.80;37.60;;;;;;5112677;28;20011;-37
2022/06/01 07:13:08;;;;;;;5.75;1.48;;;25.90;37.50;;;;;;5111088;28;20100;-38
2022/06/01 07:15:35;;;;;;;8.45;1.17;;;25.90;37.50;;;;;;5110877;28;20012;-42
2022/06/01 07:18:04;;;;;;;8.68;1.52;;;26.00;37.40;;;;;;5112083;28;20011;-37
2022/06/01 07:20:29;;;;;;;7.85;1.50;;;26.00;37.40;;;;;;5113132;28;20011;-38
2022/06/01 07:22:56;;;;;;;16.17;2.42;;;25.90;37.40;;;;;;5113665;28;20450;-38
2022/06/01 07:25:22;;;;;;;18.75;1.83;;;26.10;37.80;;;;;;5117096;28;20020;-40
2022/06/01 07:27:51;;;;;;;17.98;2.28;;;26.20;38.00;;;;;;5116879;28;20151;-38
2022/06/01 07:30:17;;;;;;;17.45;2.00;;;26.30;38.00;;;;;;5116905;28;20131;-37
2022/06/01 07:32:49;;;;;;;12.25;2.05;;;26.20;38.00;;;;;;5116996;28;20016;-37
2022/06/01 07:35:16;;;;;;;12.93;1.83;;;26.20;38.20;;;;;;5115828;28;20028;-37
2022/06/01 07:43:15;;;;;;;15.07;1.80;;;26.10;38.40;;;;;;5114952;28;20094;-36
2022/06/01 07:45:45;;;;;;;12.32;1.55;;;26.10;38.60;;;;;;5114969;28;20107;-36
2022/06/01 07:48:11;;;;;;;10.00;1.83;;;25.90;38.80;;;;;;5115158;28;20024;-36
2022/06/01 07:50:37;;;;;;;11.50;1.50;;;25.90;39.20;;;;;;5115728;28;20347;-37
2022/06/01 07:53:04;;;;;;;7.90;1.60;;;25.80;39.80;;;;;;5115556;28;20015;-37
2022/06/01 07:55:30;;;;;;;11.18;1.50;;;25.60;39.40;;;;;;5097573;28;20011;-37
2022/06/01 07:57:55;;;;;;;11.75;1.65;;;25.60;39.20;;;;;;5096871;28;20076;-38
2022/06/01 08:00:21;;;;;;;6.75;1.40;;;25.70;39.10;;;;;;5115299;28;20019;-36
2022/06/01 08:02:47;;;;;;;8.20;1.30;;;25.70;38.90;;;;;;5113784;28;20019;-36
2022/06/01 08:05:14;;;;;;;9.93;1.40;;;25.80;39.00;;;;;;5114611;28;20028;-37
2022/06/01 08:07:40;;;;;;;10.15;1.08;;;25.80;39.10;;;;;;5115437;28;20080;-37
2022/06/01 08:10:07;;;;;;;10.40;1.55;;;25.70;39.20;;;;;;5115943;28;20012;-37
2022/06/01 08:15:20;;;;;;;13.48;1.80;;;25.40;39.50;;;;;;5114910;28;20404;-36
2022/06/01 08:17:47;;;;;;;12.43;2.45;;;25.40;39.30;;;;;;5113266;28;20016;-36
2022/06/01 08:20:13;;;;;;;15.50;2.50;;;25.40;39.20;;;;;;5114566;28;20024;-36
2022/06/01 08:22:39;;;;;;;12.75;1.90;;;25.20;39.40;;;;;;5113971;28;20044;-37
2022/06/01 08:25:07;;;;;;;16.33;2.10;;;24.90;39.70;;;;;;5115613;27;20449;-36
2022/06/01 08:27:33;;;;;;;13.77;2.20;;;24.80;40.40;;;;;;5096740;28;20014;-37
2022/06/01 08:29:58;;;;;;;17.48;2.17;;;24.70;40.70;;;;;;5079567;28;20474;-44
2022/06/01 08:32:24;;;;;;;13.23;1.80;;;24.80;40.40;;;;;;5113736;28;20529;-38
2022/06/01 08:34:51;;;;;;;15.32;1.98;;;25.00;40.00;;;;;;5114726;28;20023;-37
2022/06/01 08:37:16;;;;;;;19.33;2.25;;;25.00;40.40;;;;;;5113487;28;20034;-37
2022/06/01 08:39:43;;;;;;;15.70;2.10;;;24.80;40.70;;;;;;5114651;28;20023;-36
2022/06/01 08:42:12;;;;;;;9.63;1.58;;;24.90;40.40;;;;;;5113977;28;20020;-37
2022/06/01 08:44:39;;;;;;;21.90;2.72;;;25.00;40.30;;;;;;5096865;28;20080;-38
2022/06/01 08:47:06;;;;;;;9.95;2.10;;;25.10;40.40;;;;;;5113372;28;20027;-37
2022/06/01 08:49:33;;;;;;;10.45;1.67;;;25.10;38.30;;;;;;5096254;28;20092;-37
2022/06/01 08:51:59;;;;;;;11.02;2.05;;;24.80;39.30;;;;;;5113455;28;20020;-36
2022/06/01 08:54:25;;;;;;;12.35;2.72;;;24.20;40.00;;;;;;5114723;28;20167;-37
2022/06/01 08:56:59;;;;;;;11.18;2.30;;;23.70;41.60;;;;;;5113380;28;20102;-38
2022/06/01 08:59:49;;;;;;;9.70;1.90;;;24.10;41.70;;;;;;5114087;28;20016;-37
2022/06/01 09:03:03;;;;;;;10.70;2.20;;;24.10;40.00;;;;;;5106053;28;20040;-38
2022/06/01 09:05:45;;;;;;;9.05;2.10;;;23.60;41.00;;;;;;5052137;28;20041;-37
2022/06/01 09:08:28;;;;;;;10.52;2.40;;;23.00;40.80;;;;;;5051335;28;20056;-38
2022/06/01 09:11:13;;;;;;;9.80;2.58;;;23.50;41.00;;;;;;5052097;28;20028;-38
2022/06/01 09:13:57;;;;;;;16.25;2.38;;;23.20;41.40;;;;;;5052856;28;20021;-38
2022/06/01 09:16:41;;;;;;;13.35;2.83;;;23.80;40.50;;;;;;5036620;28;20484;-38
2022/06/01 09:19:23;;;;;;;10.50;2.42;;;24.40;39.40;;;;;;5037315;28;20019;-37
2022/06/01 09:24:41;;;;;;;10.15;2.50;;;25.00;37.90;;;;;;5039369;28;20040;-40
2022/06/01 09:27:11;;;;;;;11.20;2.67;;;25.20;37.60;;;;;;5037440;28;20459;-42
2022/06/01 09:29:47;;;;;;;11.75;2.30;;;25.20;37.30;;;;;;5037219;28;20028;-43
2022/06/01 09:32:29;;;;;;;10.23;2.63;;;25.30;37.20;;;;;;5036973;28;20021;-38
2022/06/01 09:34:59;;;;;;;10.27;2.50;;;25.30;37.20;;;;;;5036528;28;20044;-38
2022/06/01 09:37:26;;;;;;;12.07;2.47;;;25.30;37.20;;;;;;5053201;28;20491;-39
2022/06/01 09:39:57;;;;;;;14.63;2.70;;;25.30;37.30;;;;;;5059898;28;20071;-40
2022/06/01 09:42:25;;;;;;;17.33;2.85;;;25.30;37.10;;;;;;5114671;28;20098;-39
2022/06/01 09:44:52;;;;;;;13.20;2.30;;;25.30;37.10;;;;;;5114630;28;20091;-39
2022/06/01 09:47:39;;;;;;;10.77;2.13;;;25.30;37.20;;;;;;5114887;28;20072;-39
2022/06/01 09:50:27;;;;;;;11.20;2.40;;;25.20;37.20;;;;;;5113776;28;20019;-38
2022/06/01 09:53:20;;;;;;;11.57;2.60;;;25.20;37.20;;;;;;5105977;28;20055;-37
2022/06/01 09:56:12;;;;;;;8.15;1.90;;;25.20;37.20;;;;;;5114420;28;20015;-37
2022/06/01 10:06:57;;;;;;;11.00;2.40;;;25.60;36.60;;;;;;5116989;28;20027;-40
2022/06/01 10:09:27;;;;;;;12.23;2.05;;;25.60;36.50;;;;;;5115611;28;20026;-40
2022/06/01 10:11:54;;;;;;;10.10;2.42;;;25.80;36.50;;;;;;5115869;28;20095;-38
2022/06/01 10:14:21;;;;;;;13.70;3.15;;;25.80;36.20;;;;;;5116289;28;20031;-43
2022/06/01 10:16:56;;;;;;;12.40;2.30;;;25.90;36.00;;;;;;5116020;28;20095;-39
2022/06/01 10:19:31;;;;;;;12.20;2.40;;;26.00;35.90;;;;;;5115026;28;20035;-39
2022/06/01 10:22:25;;;;;;;12.23;2.85;;;26.20;35.80;;;;;;5115466;28;20027;-38
2022/06/01 10:25:12;;;;;;;9.50;1.90;;;26.30;35.60;;;;;;5117178;28;20470;-39
2022/06/01 10:27:51;;;;;;;7.95;1.95;;;26.30;35.30;;;;;;5114836;28;20029;-39
2022/06/01 10:30:28;;;;;;;13.98;2.15;;;26.20;35.30;;;;;;5115903;28;20016;-38
2022/06/01 10:33:18;;;;;;;11.93;2.30;;;26.20;35.40;;;;;;5098904;28;20004;-37
2022/06/01 10:35:46;;;;;;;9.38;1.90;;;26.10;35.40;;;;;;5118188;28;20034;-40
2022/06/01 10:38:41;;;;;;;10.05;1.83;;;26.00;35.50;;;;;;5117099;28;20089;-39
2022/06/01 10:41:27;;;;;;;12.38;1.80;;;25.90;35.60;;;;;;5115791;28;20024;-38
2022/06/01 10:44:25;;;;;;;9.43;1.77;;;25.80;35.70;;;;;;5116443;28;20093;-43
2022/06/01 10:47:04;;;;;;;8.20;2.13;;;25.70;35.80;;;;;;5104181;28;20023;-39
2022/06/01 10:49:48;;;;;;;10.95;1.88;;;25.60;35.90;;;;;;5118298;28;20030;-40
2022/06/01 10:52:34;;;;;;;9.27;2.00;;;25.60;36.00;;;;;;5116966;28;20020;-40
2022/06/01 10:55:17;;;;;;;11.05;1.63;;;25.70;35.80;;;;;;5100710;28;20020;-39
2022/06/01 10:57:44;;;;;;;7.75;1.40;;;25.70;35.50;;;;;;5119961;28;20019;-37
2022/06/01 11:00:19;;;;;;;8.88;1.52;;;25.70;35.40;;;;;;5120478;28;20523;-42
2022/06/01 11:03:06;;;;;;;9.45;1.70;;;25.70;35.30;;;;;;5122133;28;20076;-40
2022/06/01 11:06:11;;;;;;;7.30;1.88;;;25.70;35.30;;;;;;5120728;28;20496;-38
2022/06/01 11:08:56;;;;;;;6.00;1.40;;;25.70;35.30;;;;;;5120466;28;20731;-38
2022/06/01 11:11:23;;;;;;;5.40;1.52;;;25.70;35.20;;;;;;5121296;28;20016;-39
2022/06/01 11:14:23;;;;;;;9.63;1.52;;;25.80;35.10;;;;;;5119821;28;20019;-40
2022/06/01 11:16:54;;;;;;;5.20;1.45;;;25.80;34.90;;;;;;5121235;28;20121;-39
2022/06/01 11:19:38;;;;;;;5.07;1.08;;;25.80;34.80;;;;;;5120148;28;20466;-39
2022/06/01 11:22:35;;;;;;;8.00;1.50;;;25.80;34.90;;;;;;5120261;28;20107;-40
2022/06/01 11:25:20;;;;;;;5.40;1.60;;;25.70;34.70;;;;;;5118623;28;20038;-39
2022/06/01 11:28:04;;;;;;;6.68;1.27;;;25.70;34.80;;;;;;5119825;28;20086;-39
2022/06/01 11:30:58;;;;;;;10.35;1.30;;;25.60;34.70;;;;;;5120146;28;20015;-39
2022/06/01 11:33:30;;;;;;;3.67;1.23;;;25.60;34.70;;;;;;5118802;28;20347;-39
2022/06/01 11:36:02;;;;;;;6.20;1.23;;;25.50;34.80;;;;;;5118958;28;20024;-39
2022/06/01 11:38:32;;;;;;;3.90;1.10;;;25.50;34.80;;;;;;5119728;28;20474;-38
2022/06/01 11:41:03;;;;;;;6.20;1.30;;;25.50;34.80;;;;;;5119166;28;20165;-39
2022/06/01 11:43:40;;;;;;;6.57;1.20;;;25.50;34.60;;;;;;5120341;28;20015;-38
2022/06/01 11:46:23;;;;;;;4.22;1.08;;;25.50;34.50;;;;;;5121659;27;20012;-39
2022/06/01 11:48:57;;;;;;;7.82;1.15;;;25.60;34.60;;;;;;5120626;28;20076;-41
2022/06/01 11:51:38;;;;;;;5.35;1.10;;;25.50;34.40;;;;;;5122552;27;20020;-42
2022/06/01 11:54:14;;;;;;;4.85;1.10;;;25.60;34.40;;;;;;5123884;28;20012;-38
2022/06/01 11:56:52;;;;;;;7.63;1.15;;;25.50;34.40;;;;;;5123348;28;20462;-40
2022/06/01 11:59:34;;;;;;;3.88;1.58;;;25.50;34.40;;;;;;5122238;28;20028;-40
2022/06/01 12:02:44;;;;;;;6.47;1.27;;;25.50;34.40;;;;;;5122150;28;20020;-38
2022/06/01 12:05:19;;;;;;;6.30;1.17;;;25.40;34.40;;;;;;5060457;28;20056;-39
2022/06/01 12:07:47;;;;;;;4.55;1.20;;;25.40;34.40;;;;;;5025728;28;20032;-37
2022/06/01 12:10:24;;;;;;;5.85;1.30;;;25.30;34.40;;;;;;5027129;28;20480;-38
2022/06/01 12:12:55;;;;;;;6.35;1.30;;;25.30;34.40;;;;;;5059748;28;20016;-40
2022/06/01 12:15:34;;;;;;;3.72;1.38;;;25.30;34.50;;;;;;5043477;28;20086;-43
2022/06/01 12:18:16;;;;;;;6.45;1.45;;;25.30;34.50;;;;;;5060249;28;20029;-39
2022/06/01 12:21:16;;;;;;;4.25;1.27;;;25.20;34.50;;;;;;5058442;28;20080;-40
2022/06/01 12:29:36;;;;;;;9.75;1.50;;;25.20;34.60;;;;;;5057479;28;19938;-37
2022/06/01 12:32:05;;;;;;;20.35;2.75;;;25.10;34.60;;;;;;5057845;28;20021;-38
2022/06/01 12:34:35;;;;;;;11.27;1.70;;;25.20;34.70;;;;;;5058226;28;20381;-39
2022/06/01 12:37:03;;;;;;;;;;;25.20;34.70;;;;;;5042046;28;20029;-40
2022/06/01 12:39:38;;;;;;;16.00;1.90;;;25.20;34.60;;;;;;5060979;28;19954;-39
2022/06/01 12:42:15;;;;;;;9.27;1.95;;;25.20;34.50;;;;;;5120528;28;20027;-37
2022/06/01 12:44:41;;;;;;;12.00;1.98;;;25.20;34.50;;;;;;5119299;28;20028;-38
2022/06/01 12:47:07;;;;;;;14.43;2.30;;;25.20;34.50;;;;;;5101208;28;20034;-39
2022/06/01 12:49:34;;;;;;;14.35;2.50;;;25.20;34.60;;;;;;5100357;28;20095;-38
2022/06/01 12:52:18;;;;;;;11.73;1.88;;;25.20;34.70;;;;;;5118039;28;20007;-39
2022/06/01 12:54:54;;;;;;;14.20;2.65;;;25.10;34.80;;;;;;5117679;28;20066;-38
2022/06/01 12:57:52;;;;;;;13.80;2.42;;;25.00;34.90;;;;;;5117335;28;20023;-39
2022/06/01 13:00:23;;;;;;;13.23;2.20;;;25.00;35.10;;;;;;5113005;28;20055;-42
2022/06/01 13:02:50;;;;;;;16.65;2.40;;;24.90;35.20;;;;;;5117048;28;20051;-39
2022/06/01 13:05:36;;;;;;;12.70;1.88;;;24.90;35.30;;;;;;5116920;28;20094;-38
2022/06/01 13:08:02;;;;;;;14.50;2.58;;;24.90;35.40;;;;;;5117401;28;20411;-38
2022/06/01 13:10:31;;;;;;;17.40;2.05;;;24.80;35.50;;;;;;5116307;28;20025;-37
2022/06/01 13:13:09;;;;;;;16.05;2.15;;;24.80;35.60;;;;;;5118011;28;20019;-40
2022/06/01 13:15:36;;;;;;;13.05;2.33;;;24.80;35.60;;;;;;5117018;28;20023;-38
2022/06/01 13:18:07;;;;;;;11.93;1.95;;;24.80;35.60;;;;;;5117729;28;20011;-38
2022/06/01 13:20:44;;;;;;;20.83;2.65;;;24.80;35.60;;;;;;5116920;28;20007;-40
2022/06/01 13:23:36;;;;;;;12.15;2.30;;;24.80;35.60;;;;;;5116422;28;20055;-39
2022/06/01 13:26:04;;;;;;;13.07;2.80;;;24.80;35.50;;;;;;5117076;28;20402;-37
2022/06/01 13:28:30;;;;;;;15.35;2.08;;;24.80;35.50;;;;;;5115633;28;20012;-40
2022/06/01 13:30:57;;;;;;;15.68;2.65;;;24.80;35.50;;;;;;5117038;27;20531;-39
2022/06/01 13:33:38;;;;;;;14.68;1.95;;;24.80;35.40;;;;;;5116284;28;20012;-38
2022/06/01 13:36:07;;;;;;;14.25;2.35;;;24.80;35.40;;;;;;5117081;28;20012;-37